Time;durP1;ratioP1;P1;durP2;ratioP2;P2;SDS_P1;SDS_P2;PMS_P1;PMS_P2;Temp;Humidity;BMP_temperature;BMP_pressure;BME280_temperature;BME280_humidity;BME280_pressure;Samples;Min_cycle;Max_cycle;Signal;HPM_P1;HPM_P2
2022/03/26 00:00:50;;;;;;;75.80;46.60;;;5.70;99.90;;;;;;2073435;28;20182;-69
2022/03/26 00:01:51;;;;;;;73.90;45.58;;;5.70;99.90;;;;;;2073411;28;20497;-71
2022/03/26 00:02:52;;;;;;;75.85;46.58;;;5.70;99.90;;;;;;2072978;28;20026;-72
2022/03/26 00:03:52;;;;;;;77.25;46.30;;;5.70;99.90;;;;;;2072845;28;20453;-72
2022/03/26 00:04:53;;;;;;;76.80;45.92;;;5.70;99.90;;;;;;2072603;28;20029;-72
2022/03/26 00:06:07;;;;;;;80.18;47.25;;;5.70;99.90;;;;;;2072931;28;20477;-73
2022/03/26 00:07:15;;;;;;;80.28;47.92;;;5.70;99.90;;;;;;2073111;28;20034;-72
2022/03/26 00:08:16;;;;;;;83.35;48.22;;;5.60;99.90;;;;;;2073097;28;20030;-71
2022/03/26 00:09:17;;;;;;;78.47;46.95;;;5.70;99.90;;;;;;2073542;28;20524;-70
2022/03/26 00:10:20;;;;;;;78.65;46.90;;;5.60;99.90;;;;;;2079569;28;20076;-70
2022/03/26 00:11:21;;;;;;;85.32;48.65;;;5.60;99.90;;;;;;2075713;28;20021;-72
2022/03/26 00:12:28;;;;;;;81.40;47.47;;;5.60;99.90;;;;;;2076131;28;20084;-72
2022/03/26 00:13:28;;;;;;;92.72;49.47;;;5.60;99.90;;;;;;2082146;28;20052;-72
2022/03/26 00:14:29;;;;;;;85.38;48.67;;;5.60;99.90;;;;;;2081848;28;20033;-71
2022/03/26 00:15:30;;;;;;;91.03;48.80;;;5.60;99.90;;;;;;2079735;28;20030;-69
2022/03/26 00:16:33;;;;;;;87.40;48.65;;;5.60;99.90;;;;;;2083813;28;20025;-70
2022/03/26 00:17:34;;;;;;;88.00;46.60;;;5.60;99.90;;;;;;2073930;28;20510;-71
2022/03/26 00:18:35;;;;;;;89.80;49.08;;;5.60;99.90;;;;;;2085439;28;20054;-69
2022/03/26 00:19:39;;;;;;;83.55;46.65;;;5.60;99.90;;;;;;2081131;28;20067;-70
2022/03/26 00:20:39;;;;;;;93.05;49.65;;;5.50;99.90;;;;;;2080677;28;20033;-71
2022/03/26 00:21:41;;;;;;;94.25;50.65;;;5.50;99.90;;;;;;2081921;28;20047;-70
2022/03/26 00:22:45;;;;;;;88.85;49.15;;;5.50;99.90;;;;;;2077163;28;20029;-72
2022/03/26 00:23:48;;;;;;;84.15;47.80;;;5.50;99.90;;;;;;2079947;28;20104;-71
2022/03/26 00:24:50;;;;;;;88.35;50.13;;;5.50;99.90;;;;;;2080433;28;20523;-69
2022/03/26 00:25:51;;;;;;;94.15;51.60;;;5.50;99.90;;;;;;2078527;28;20037;-70
2022/03/26 00:26:52;;;;;;;94.53;51.22;;;5.50;99.90;;;;;;2078786;28;20044;-71
2022/03/26 00:27:52;;;;;;;100.15;51.95;;;5.50;99.90;;;;;;2081032;28;20033;-71
2022/03/26 00:28:54;;;;;;;93.57;51.47;;;5.50;99.90;;;;;;2081658;28;20108;-71
2022/03/26 00:29:55;;;;;;;93.70;50.95;;;5.50;99.90;;;;;;2078352;28;20041;-71
2022/03/26 00:30:56;;;;;;;85.05;49.10;;;5.50;99.90;;;;;;2080147;28;20119;-73
2022/03/26 00:31:57;;;;;;;87.32;49.70;;;5.50;99.90;;;;;;2081358;28;20052;-71
2022/03/26 00:32:58;;;;;;;86.93;49.47;;;5.50;99.90;;;;;;2085185;28;20017;-70
2022/03/26 00:34:00;;;;;;;84.78;48.88;;;5.50;99.90;;;;;;2079584;28;20384;-71
2022/03/26 00:35:01;;;;;;;82.15;48.90;;;5.50;99.90;;;;;;2079374;28;20037;-71
2022/03/26 00:36:02;;;;;;;81.30;47.75;;;5.40;99.90;;;;;;2077017;28;20025;-72
2022/03/26 00:37:03;;;;;;;79.30;46.58;;;5.40;99.90;;;;;;2072448;28;20026;-70
2022/03/26 00:38:04;;;;;;;75.82;45.70;;;5.40;99.90;;;;;;2081222;28;20049;-71
2022/03/26 00:39:05;;;;;;;80.65;46.95;;;5.40;99.90;;;;;;2084177;28;20032;-72
2022/03/26 00:40:07;;;;;;;83.80;47.35;;;5.40;99.90;;;;;;2078148;28;20025;-71
2022/03/26 00:41:08;;;;;;;79.07;46.55;;;5.40;99.90;;;;;;2080865;28;20037;-72
2022/03/26 00:42:12;;;;;;;75.93;45.92;;;5.40;99.90;;;;;;2076940;28;20030;-72
2022/03/26 00:43:13;;;;;;;74.65;45.88;;;5.30;99.90;;;;;;2084734;28;20108;-71
2022/03/26 00:44:13;;;;;;;75.88;45.78;;;5.40;99.90;;;;;;2075967;28;20037;-70
2022/03/26 00:45:15;;;;;;;79.05;47.17;;;5.30;99.90;;;;;;2078922;28;20022;-69
2022/03/26 00:46:16;;;;;;;78.55;46.88;;;5.30;99.90;;;;;;2076613;28;20077;-70
2022/03/26 00:47:17;;;;;;;77.20;46.38;;;5.30;99.90;;;;;;2081585;28;20041;-72
2022/03/26 00:48:17;;;;;;;76.30;45.70;;;5.30;99.90;;;;;;2076291;28;20065;-72
2022/03/26 00:49:19;;;;;;;76.00;45.65;;;5.30;99.90;;;;;;2081606;28;20021;-72
2022/03/26 00:50:19;;;;;;;73.47;45.53;;;5.30;99.90;;;;;;2075058;28;20565;-72
2022/03/26 00:51:21;;;;;;;75.68;45.03;;;5.30;99.90;;;;;;2082320;28;20033;-72
2022/03/26 00:52:22;;;;;;;79.70;46.35;;;5.30;99.90;;;;;;2076362;28;20069;-71
2022/03/26 00:53:23;;;;;;;79.13;46.25;;;5.30;99.90;;;;;;2080131;28;20059;-72
2022/03/26 00:54:24;;;;;;;75.70;46.08;;;5.30;99.90;;;;;;2075401;28;20026;-72
2022/03/26 00:55:25;;;;;;;77.47;45.53;;;5.30;99.90;;;;;;2081584;28;20030;-71
2022/03/26 00:56:26;;;;;;;76.38;45.53;;;5.30;99.90;;;;;;2075788;28;20468;-72
2022/03/26 00:57:27;;;;;;;73.28;44.42;;;5.30;99.90;;;;;;2082758;28;20033;-72
2022/03/26 00:58:28;;;;;;;76.82;45.60;;;5.30;99.90;;;;;;2080844;28;20046;-71
2022/03/26 00:59:28;;;;;;;76.80;44.53;;;5.20;99.90;;;;;;2072878;28;20034;-71
2022/03/26 01:00:29;;;;;;;69.90;43.28;;;5.20;99.90;;;;;;2076256;28;20040;-72
2022/03/26 01:01:31;;;;;;;74.32;44.60;;;5.20;99.90;;;;;;2081096;28;20116;-71
2022/03/26 01:02:32;;;;;;;72.03;44.17;;;5.20;99.90;;;;;;2083475;28;20024;-71
2022/03/26 01:03:34;;;;;;;74.65;45.30;;;5.30;99.90;;;;;;2075127;28;20026;-72
2022/03/26 01:04:34;;;;;;;79.38;45.28;;;5.30;99.90;;;;;;2078284;28;20396;-71
2022/03/26 01:05:36;;;;;;;76.55;45.22;;;5.30;99.90;;;;;;2081115;28;20013;-72
2022/03/26 01:06:37;;;;;;;74.88;44.28;;;5.20;99.90;;;;;;2077623;28;20030;-72
2022/03/26 01:07:38;;;;;;;74.63;45.65;;;5.30;99.90;;;;;;2080125;28;20056;-71
2022/03/26 01:08:39;;;;;;;77.07;44.70;;;5.20;99.90;;;;;;2076138;28;20025;-71
2022/03/26 01:09:39;;;;;;;77.00;45.75;;;5.20;99.90;;;;;;2081788;28;20028;-72
2022/03/26 01:10:41;;;;;;;78.63;45.53;;;5.20;99.90;;;;;;2076670;28;20465;-72
2022/03/26 01:11:42;;;;;;;78.25;45.72;;;5.20;99.90;;;;;;2081573;28;20048;-71
2022/03/26 01:12:43;;;;;;;74.20;44.50;;;5.20;99.90;;;;;;2082382;28;20077;-71
2022/03/26 01:13:45;;;;;;;79.00;45.15;;;5.20;99.90;;;;;;2079901;28;20499;-72
2022/03/26 01:14:46;;;;;;;75.05;44.42;;;5.20;99.90;;;;;;2076756;28;20045;-72
2022/03/26 01:15:47;;;;;;;74.97;45.03;;;5.20;99.90;;;;;;2080812;28;20021;-71
2022/03/26 01:16:48;;;;;;;75.18;44.60;;;5.20;99.90;;;;;;2080051;28;20032;-71
2022/03/26 01:17:49;;;;;;;76.15;44.00;;;5.20;99.90;;;;;;2079015;28;20033;-72
2022/03/26 01:18:50;;;;;;;74.35;44.50;;;5.20;99.90;;;;;;2079058;28;20032;-72
2022/03/26 01:19:51;;;;;;;77.82;45.58;;;5.20;99.90;;;;;;2078724;28;20504;-70
2022/03/26 01:20:52;;;;;;;75.40;44.83;;;5.10;99.90;;;;;;2079763;28;20028;-71
2022/03/26 01:21:53;;;;;;;73.85;44.15;;;5.10;99.90;;;;;;2079216;28;20025;-71
2022/03/26 01:22:54;;;;;;;75.22;44.42;;;5.10;99.90;;;;;;2078339;28;20025;-71
2022/03/26 01:23:55;;;;;;;78.03;45.42;;;5.10;99.90;;;;;;2081372;28;20477;-70
2022/03/26 01:24:57;;;;;;;74.47;45.17;;;5.10;99.90;;;;;;2081353;28;20097;-70
2022/03/26 01:25:58;;;;;;;75.00;44.22;;;5.10;99.90;;;;;;2080526;28;20684;-70
2022/03/26 01:26:59;;;;;;;70.22;43.55;;;5.10;99.90;;;;;;2072294;28;20057;-72
2022/03/26 01:27:59;;;;;;;74.25;43.58;;;5.10;99.90;;;;;;2074131;28;20026;-72
2022/03/26 01:29:01;;;;;;;75.15;44.83;;;5.10;99.90;;;;;;2077802;28;20033;-72
2022/03/26 01:30:02;;;;;;;71.32;43.42;;;5.10;99.90;;;;;;2088501;28;20044;-73
2022/03/26 01:31:03;;;;;;;75.10;44.70;;;5.00;99.90;;;;;;2085203;28;20017;-69
2022/03/26 01:32:06;;;;;;;78.82;45.05;;;5.00;99.90;;;;;;2076832;28;20040;-70
2022/03/26 01:33:07;;;;;;;75.93;44.83;;;5.00;99.90;;;;;;2079707;28;20026;-69
2022/03/26 01:34:08;;;;;;;71.63;43.88;;;5.00;99.90;;;;;;2081921;28;20037;-69
2022/03/26 01:35:09;;;;;;;72.65;43.47;;;5.00;99.90;;;;;;2080590;28;20067;-70
2022/03/26 01:36:11;;;;;;;72.65;43.42;;;5.00;99.90;;;;;;2075253;28;20042;-69
2022/03/26 01:37:12;;;;;;;73.45;43.67;;;5.00;99.90;;;;;;2081506;28;20511;-70
2022/03/26 01:38:13;;;;;;;71.47;44.10;;;5.00;99.90;;;;;;2075677;28;20584;-70
2022/03/26 01:39:18;;;;;;;73.15;43.65;;;5.00;99.90;;;;;;2091634;28;20368;-70
2022/03/26 01:40:19;;;;;;;77.25;44.83;;;5.00;99.90;;;;;;2089624;28;20031;-71
2022/03/26 01:41:20;;;;;;;73.10;42.60;;;5.00;99.90;;;;;;2082882;28;20032;-70
2022/03/26 01:42:24;;;;;;;72.50;42.92;;;5.00;99.90;;;;;;2076279;28;20084;-70
2022/03/26 01:43:25;;;;;;;73.95;43.42;;;5.00;99.90;;;;;;2080968;28;20087;-70
2022/03/26 01:44:26;;;;;;;69.88;41.30;;;5.00;99.90;;;;;;2074740;28;20101;-70
2022/03/26 01:45:29;;;;;;;72.18;42.50;;;5.00;99.90;;;;;;2081913;28;20083;-71
2022/03/26 01:46:54;;;;;;;74.97;43.13;;;4.90;99.90;;;;;;2081243;28;20052;-71
2022/03/26 01:47:57;;;;;;;73.70;43.13;;;4.90;99.90;;;;;;2076316;28;20024;-71
2022/03/26 01:48:57;;;;;;;71.80;42.80;;;5.00;99.90;;;;;;2084826;28;20041;-70
2022/03/26 01:49:58;;;;;;;71.35;42.25;;;4.90;99.90;;;;;;2077226;28;20029;-71
2022/03/26 01:51:14;;;;;;;70.30;42.85;;;4.90;99.90;;;;;;2079057;28;20172;-71
2022/03/26 01:52:14;;;;;;;69.95;41.65;;;4.90;99.90;;;;;;2073183;28;20079;-71
2022/03/26 01:53:15;;;;;;;70.85;42.97;;;4.90;99.90;;;;;;2064278;28;20487;-71
2022/03/26 01:54:18;;;;;;;70.32;42.42;;;4.90;99.90;;;;;;2067108;28;20508;-70
2022/03/26 01:55:19;;;;;;;78.30;44.53;;;4.90;99.90;;;;;;2072685;28;20468;-71
2022/03/26 01:56:21;;;;;;;72.10;42.63;;;4.90;99.90;;;;;;2078606;28;20171;-71
2022/03/26 01:57:22;;;;;;;73.88;43.40;;;4.90;99.90;;;;;;2081957;28;20097;-71
2022/03/26 01:58:23;;;;;;;69.97;42.75;;;4.90;99.90;;;;;;2080754;28;20030;-71
2022/03/26 01:59:25;;;;;;;71.35;42.20;;;4.80;99.90;;;;;;2072243;28;20018;-71
2022/03/26 02:00:26;;;;;;;68.82;41.95;;;4.80;99.90;;;;;;2081372;28;20025;-71
2022/03/26 02:01:27;;;;;;;65.97;41.03;;;4.80;99.90;;;;;;2080318;28;20031;-71
2022/03/26 02:02:28;;;;;;;73.25;42.35;;;4.80;99.90;;;;;;2079391;28;20014;-70
2022/03/26 02:03:29;;;;;;;69.03;41.78;;;4.80;99.90;;;;;;2073356;28;20025;-71
2022/03/26 02:04:30;;;;;;;69.95;41.55;;;4.80;99.90;;;;;;2069235;28;20518;-70
2022/03/26 02:05:32;;;;;;;71.90;42.15;;;4.80;99.90;;;;;;2079562;28;20037;-71
2022/03/26 02:06:34;;;;;;;69.70;41.40;;;4.80;99.90;;;;;;2078413;28;20030;-71
2022/03/26 02:07:38;;;;;;;71.68;42.08;;;4.80;99.90;;;;;;2080460;28;20029;-71
2022/03/26 02:08:50;;;;;;;69.60;40.97;;;4.80;99.90;;;;;;2075650;28;20472;-71
2022/03/26 02:09:50;;;;;;;70.13;41.17;;;4.80;99.90;;;;;;2066950;28;20038;-70
2022/03/26 02:10:51;;;;;;;68.60;41.65;;;4.70;99.90;;;;;;2071919;28;20040;-71
2022/03/26 02:11:52;;;;;;;70.85;41.40;;;4.70;99.90;;;;;;2075493;28;20081;-71
2022/03/26 02:12:53;;;;;;;66.63;39.78;;;4.70;99.90;;;;;;2082123;28;20029;-70
2022/03/26 02:13:55;;;;;;;67.95;41.08;;;4.70;99.90;;;;;;2077763;28;20030;-71
2022/03/26 02:14:57;;;;;;;68.95;41.10;;;4.70;99.90;;;;;;2080448;28;20021;-71
2022/03/26 02:15:58;;;;;;;67.78;41.00;;;4.70;99.90;;;;;;2078528;28;20061;-71
2022/03/26 02:16:59;;;;;;;68.70;40.45;;;4.70;99.90;;;;;;2070192;28;20037;-71
2022/03/26 02:18:00;;;;;;;69.60;40.30;;;4.70;99.90;;;;;;2080230;28;20021;-71
2022/03/26 02:19:00;;;;;;;71.82;42.10;;;4.70;99.90;;;;;;2081551;28;20025;-71
2022/03/26 02:20:05;;;;;;;67.30;40.35;;;4.70;99.90;;;;;;2071938;28;20060;-70
2022/03/26 02:21:06;;;;;;;68.22;40.67;;;4.70;99.90;;;;;;2079148;28;20097;-71
2022/03/26 02:22:07;;;;;;;69.72;41.10;;;4.70;99.90;;;;;;2077364;28;20018;-71
2022/03/26 02:23:08;;;;;;;68.20;40.42;;;4.60;99.90;;;;;;2080087;28;20038;-71
2022/03/26 02:24:09;;;;;;;69.38;41.10;;;4.60;99.90;;;;;;2080294;28;20033;-71
2022/03/26 02:25:10;;;;;;;68.28;40.92;;;4.60;99.90;;;;;;2080803;28;20033;-71
2022/03/26 02:26:16;;;;;;;71.50;41.67;;;4.70;99.90;;;;;;2075494;28;20076;-69
2022/03/26 02:27:17;;;;;;;69.50;41.10;;;4.60;99.90;;;;;;2078431;28;20119;-70
2022/03/26 02:28:18;;;;;;;67.32;40.50;;;4.60;99.90;;;;;;2072798;28;20088;-70
2022/03/26 02:29:19;;;;;;;68.70;40.92;;;4.60;99.90;;;;;;2072222;28;20094;-69
2022/03/26 02:30:21;;;;;;;68.85;40.72;;;4.60;99.90;;;;;;2074856;28;20036;-69
2022/03/26 02:31:23;;;;;;;72.40;42.55;;;4.60;99.90;;;;;;2081558;28;20112;-69
2022/03/26 02:32:25;;;;;;;70.57;40.85;;;4.60;99.90;;;;;;2076456;28;20046;-68
2022/03/26 02:33:27;;;;;;;69.38;40.90;;;4.50;99.90;;;;;;2081878;28;20556;-69
2022/03/26 02:34:28;;;;;;;76.68;42.55;;;4.50;99.90;;;;;;2074554;28;20026;-68
2022/03/26 02:35:28;;;;;;;69.57;40.78;;;4.50;99.90;;;;;;2080374;28;20052;-70
2022/03/26 02:36:29;;;;;;;70.85;40.35;;;4.50;99.90;;;;;;2076404;28;20413;-71
2022/03/26 02:37:32;;;;;;;71.03;41.30;;;4.50;99.90;;;;;;2080587;28;20064;-68
2022/03/26 02:38:33;;;;;;;70.25;41.08;;;4.50;99.90;;;;;;2074923;28;20037;-69
2022/03/26 02:39:33;;;;;;;67.90;40.53;;;4.50;99.90;;;;;;2082407;28;20028;-69
2022/03/26 02:40:34;;;;;;;69.35;40.47;;;4.50;99.90;;;;;;2075584;28;20026;-69
2022/03/26 02:41:35;;;;;;;76.38;42.42;;;4.50;99.90;;;;;;2081049;28;20457;-70
2022/03/26 02:42:36;;;;;;;72.70;41.92;;;4.50;99.90;;;;;;2079057;28;20045;-70
2022/03/26 02:43:37;;;;;;;66.75;40.65;;;4.50;99.90;;;;;;2072441;28;20694;-70
2022/03/26 02:44:38;;;;;;;75.90;41.85;;;4.50;99.90;;;;;;2071643;28;20440;-70
2022/03/26 02:45:44;;;;;;;70.22;40.15;;;4.50;99.90;;;;;;2082001;28;20095;-70
2022/03/26 02:46:45;;;;;;;70.55;40.10;;;4.50;99.90;;;;;;2083553;28;20440;-69
2022/03/26 02:47:48;;;;;;;69.88;39.33;;;4.50;99.90;;;;;;2079108;28;20022;-70
2022/03/26 02:48:50;;;;;;;68.28;39.15;;;4.50;99.90;;;;;;2078265;28;20022;-69
2022/03/26 02:50:00;;;;;;;66.70;39.53;;;4.50;99.90;;;;;;2078043;28;20021;-73
2022/03/26 02:51:01;;;;;;;69.13;38.22;;;4.50;99.90;;;;;;2079166;28;20120;-68
2022/03/26 02:52:02;;;;;;;64.00;37.65;;;4.50;99.90;;;;;;2078281;28;20030;-68
2022/03/26 02:53:03;;;;;;;66.55;37.58;;;4.40;99.90;;;;;;2078330;28;20080;-69
2022/03/26 02:54:18;;;;;;;67.22;38.17;;;4.50;99.90;;;;;;2075873;28;20112;-69
2022/03/26 02:55:19;;;;;;;67.60;38.33;;;4.50;99.90;;;;;;2078333;28;20030;-69
2022/03/26 02:56:20;;;;;;;62.60;37.35;;;4.40;99.90;;;;;;2080906;28;20022;-69
2022/03/26 02:57:21;;;;;;;62.28;36.35;;;4.40;99.90;;;;;;2083091;28;20033;-68
2022/03/26 02:58:22;;;;;;;65.22;38.45;;;4.40;99.90;;;;;;2074846;28;20112;-69
2022/03/26 02:59:23;;;;;;;61.38;37.63;;;4.40;99.90;;;;;;2080303;28;20030;-68
2022/03/26 03:00:24;;;;;;;64.00;37.53;;;4.40;99.90;;;;;;2075328;28;20033;-70
2022/03/26 03:01:26;;;;;;;64.95;37.83;;;4.40;99.90;;;;;;2081119;28;20492;-69
2022/03/26 03:02:26;;;;;;;64.10;37.55;;;4.40;99.90;;;;;;2074984;28;20765;-69
2022/03/26 03:03:27;;;;;;;65.38;37.67;;;4.40;99.90;;;;;;2081710;28;20124;-70
2022/03/26 03:04:28;;;;;;;63.65;37.72;;;4.40;99.90;;;;;;2075079;28;20037;-69
2022/03/26 03:05:30;;;;;;;63.67;38.42;;;4.40;99.90;;;;;;2079447;28;20032;-70
2022/03/26 03:06:34;;;;;;;65.93;37.47;;;4.40;99.90;;;;;;2075602;28;20029;-70
2022/03/26 03:07:36;;;;;;;65.97;38.47;;;4.40;99.90;;;;;;2072328;28;20165;-69
2022/03/26 03:08:37;;;;;;;64.10;37.35;;;4.40;99.90;;;;;;2079862;28;20014;-70
2022/03/26 03:09:38;;;;;;;60.55;35.97;;;4.30;99.90;;;;;;2081085;28;20029;-70
2022/03/26 03:10:39;;;;;;;62.47;36.90;;;4.30;99.90;;;;;;2075559;28;20075;-70
2022/03/26 03:11:39;;;;;;;66.03;38.00;;;4.30;99.90;;;;;;2079870;28;20512;-69
2022/03/26 03:12:40;;;;;;;67.53;38.58;;;4.40;99.90;;;;;;2080873;28;20037;-69
2022/03/26 03:13:41;;;;;;;64.22;37.38;;;4.30;99.90;;;;;;2079236;28;20111;-69
2022/03/26 03:14:42;;;;;;;67.32;38.22;;;4.30;99.90;;;;;;2074840;28;20045;-69
2022/03/26 03:15:43;;;;;;;65.63;38.65;;;4.30;99.90;;;;;;2079869;28;20036;-69
2022/03/26 03:16:45;;;;;;;62.10;36.95;;;4.30;99.90;;;;;;2075651;28;20033;-69
2022/03/26 03:17:48;;;;;;;61.83;35.80;;;4.30;99.90;;;;;;2073512;28;20045;-68
2022/03/26 03:18:48;;;;;;;63.72;36.50;;;4.30;99.90;;;;;;2082609;28;20021;-69
2022/03/26 03:19:49;;;;;;;61.55;37.40;;;4.20;99.90;;;;;;2079843;28;20087;-69
2022/03/26 03:20:50;;;;;;;61.03;36.92;;;4.30;99.90;;;;;;2078730;28;20033;-70
2022/03/26 03:21:51;;;;;;;67.60;37.10;;;4.20;99.90;;;;;;2080648;28;20084;-70
2022/03/26 03:22:52;;;;;;;66.32;38.38;;;4.20;99.90;;;;;;2079166;28;20097;-69
2022/03/26 03:23:52;;;;;;;65.13;38.20;;;4.20;99.90;;;;;;2079216;28;20061;-69
2022/03/26 03:24:53;;;;;;;65.57;38.83;;;4.20;99.90;;;;;;2080001;28;20481;-69
2022/03/26 03:25:54;;;;;;;67.63;38.33;;;4.20;99.90;;;;;;2079219;28;20020;-70
2022/03/26 03:26:58;;;;;;;69.32;39.53;;;4.20;99.90;;;;;;2080103;28;20051;-70
2022/03/26 03:27:59;;;;;;;68.00;39.53;;;4.20;99.90;;;;;;2083043;28;20079;-69
2022/03/26 03:29:00;;;;;;;63.50;37.95;;;4.20;99.90;;;;;;2081775;28;20076;-71
2022/03/26 03:30:01;;;;;;;67.18;39.40;;;4.10;99.90;;;;;;2078041;28;20050;-70
2022/03/26 03:31:02;;;;;;;67.10;38.25;;;4.10;99.90;;;;;;2081641;28;20029;-71
2022/03/26 03:32:03;;;;;;;72.20;40.55;;;4.10;99.90;;;;;;2078106;28;20030;-70
2022/03/26 03:33:05;;;;;;;69.82;39.83;;;4.10;99.90;;;;;;2080189;28;20025;-69
2022/03/26 03:34:06;;;;;;;69.13;40.63;;;4.10;99.90;;;;;;2082917;28;20029;-69
2022/03/26 03:35:08;;;;;;;69.90;40.47;;;4.10;99.90;;;;;;2081097;28;20457;-70
2022/03/26 03:36:08;;;;;;;72.22;40.88;;;4.10;99.90;;;;;;2078428;28;20508;-70
2022/03/26 03:37:10;;;;;;;74.22;40.90;;;4.10;99.90;;;;;;2082609;28;20480;-69
2022/03/26 03:38:10;;;;;;;71.68;40.45;;;4.10;99.90;;;;;;2077191;28;20034;-70
2022/03/26 03:39:14;;;;;;;68.07;39.60;;;4.00;99.90;;;;;;2081415;28;20087;-69
2022/03/26 03:40:17;;;;;;;67.32;38.95;;;4.00;99.90;;;;;;2074719;28;20042;-69
2022/03/26 03:41:18;;;;;;;67.40;38.92;;;4.00;99.90;;;;;;2081824;28;20040;-69
2022/03/26 03:42:19;;;;;;;69.38;39.95;;;4.00;99.90;;;;;;2077291;28;20022;-70
2022/03/26 03:43:20;;;;;;;66.32;38.15;;;4.00;99.90;;;;;;2082672;28;20500;-70
2022/03/26 03:44:21;;;;;;;64.13;38.35;;;4.00;99.90;;;;;;2076724;28;20033;-70
2022/03/26 03:45:25;;;;;;;62.08;37.20;;;4.00;99.90;;;;;;2074866;28;20053;-69
2022/03/26 03:46:26;;;;;;;63.55;38.47;;;3.90;99.90;;;;;;2082345;28;20029;-69
2022/03/26 03:47:27;;;;;;;64.50;37.92;;;3.90;99.90;;;;;;2083023;28;20389;-69
2022/03/26 03:48:31;;;;;;;62.72;37.88;;;3.90;99.90;;;;;;2077165;28;20032;-70
2022/03/26 03:49:34;;;;;;;67.50;37.90;;;3.90;99.90;;;;;;2082030;28;20021;-69
2022/03/26 03:50:35;;;;;;;68.55;38.90;;;3.90;99.90;;;;;;2076518;28;20022;-69
2022/03/26 03:51:36;;;;;;;65.78;38.58;;;3.90;99.90;;;;;;2082739;28;20033;-70
2022/03/26 03:52:39;;;;;;;65.25;37.60;;;3.90;99.90;;;;;;2079981;28;20023;-69
2022/03/26 03:53:40;;;;;;;64.13;37.67;;;3.90;99.90;;;;;;2080619;28;20083;-70
2022/03/26 03:54:41;;;;;;;63.63;37.25;;;3.90;99.90;;;;;;2077274;28;20080;-69
2022/03/26 03:55:42;;;;;;;62.75;37.63;;;3.90;99.90;;;;;;2080968;28;20032;-69
2022/03/26 03:56:45;;;;;;;65.82;37.33;;;3.90;99.90;;;;;;2077900;28;20033;-69
2022/03/26 03:57:46;;;;;;;66.03;37.50;;;3.80;99.90;;;;;;2080471;28;20049;-68
2022/03/26 03:58:47;;;;;;;69.95;39.40;;;3.80;99.90;;;;;;2077657;28;20026;-68
2022/03/26 03:59:47;;;;;;;67.45;40.15;;;3.80;99.90;;;;;;2081143;28;20095;-70
2022/03/26 04:00:48;;;;;;;67.78;39.40;;;3.80;99.90;;;;;;2082303;28;20022;-68
2022/03/26 04:01:49;;;;;;;67.65;38.60;;;3.80;99.90;;;;;;2079725;28;20032;-69
2022/03/26 04:02:50;;;;;;;67.50;39.10;;;3.80;99.90;;;;;;2078588;28;20017;-69
2022/03/26 04:03:51;;;;;;;72.20;39.88;;;3.80;99.90;;;;;;2080570;28;20028;-69
2022/03/26 04:04:52;;;;;;;67.25;39.33;;;3.80;99.90;;;;;;2078252;28;20028;-70
2022/03/26 04:05:52;;;;;;;68.22;40.28;;;3.80;99.90;;;;;;2081099;28;20450;-69
2022/03/26 04:06:53;;;;;;;68.70;40.25;;;3.80;99.90;;;;;;2082064;28;20025;-69
2022/03/26 04:07:54;;;;;;;68.47;39.78;;;3.80;99.90;;;;;;2078268;28;20018;-69
2022/03/26 04:08:54;;;;;;;67.38;38.75;;;3.80;99.90;;;;;;2078697;28;20021;-69
2022/03/26 04:09:55;;;;;;;70.10;40.17;;;3.80;99.90;;;;;;2079529;28;20069;-69
2022/03/26 04:10:56;;;;;;;69.88;39.95;;;3.80;99.90;;;;;;2081675;28;20026;-69
2022/03/26 04:11:57;;;;;;;64.63;38.58;;;3.70;99.90;;;;;;2078374;28;20026;-69
2022/03/26 04:12:58;;;;;;;67.45;39.20;;;3.70;99.90;;;;;;2080029;28;20060;-69
2022/03/26 04:13:58;;;;;;;70.55;40.00;;;3.70;99.90;;;;;;2077345;28;20481;-69
2022/03/26 04:14:59;;;;;;;69.28;39.60;;;3.70;99.90;;;;;;2079178;28;20025;-69
2022/03/26 04:16:00;;;;;;;67.90;39.60;;;3.70;99.90;;;;;;2079145;28;20044;-69
2022/03/26 04:17:01;;;;;;;71.07;39.53;;;3.70;99.90;;;;;;2079946;28;20041;-69
2022/03/26 04:18:02;;;;;;;68.65;40.05;;;3.70;99.90;;;;;;2077647;28;20108;-69
2022/03/26 04:19:03;;;;;;;65.90;40.03;;;3.70;99.90;;;;;;2083479;28;20056;-69
2022/03/26 04:20:08;;;;;;;69.15;39.25;;;3.70;99.90;;;;;;2076492;28;20037;-69
2022/03/26 04:21:08;;;;;;;68.90;40.08;;;3.70;99.90;;;;;;2080978;28;20654;-69
2022/03/26 04:22:09;;;;;;;64.93;37.97;;;3.70;99.90;;;;;;2090576;28;20528;-68
2022/03/26 04:23:10;;;;;;;69.28;40.42;;;3.70;99.90;;;;;;2091747;28;20575;-69
2022/03/26 04:24:11;;;;;;;69.55;40.45;;;3.70;99.90;;;;;;2078469;28;20034;-69
2022/03/26 04:25:11;;;;;;;66.13;39.92;;;3.60;99.90;;;;;;2081027;28;20103;-69
2022/03/26 04:26:12;;;;;;;69.10;40.10;;;3.70;99.90;;;;;;2081485;28;20400;-69
2022/03/26 04:27:13;;;;;;;70.03;40.03;;;3.70;99.90;;;;;;2081624;28;20060;-69
2022/03/26 04:28:14;;;;;;;69.97;39.33;;;3.70;99.90;;;;;;2081337;28;20742;-68
2022/03/26 04:29:14;;;;;;;69.22;39.97;;;3.70;99.90;;;;;;2081411;28;20033;-69
2022/03/26 04:30:15;;;;;;;67.18;39.65;;;3.60;99.90;;;;;;2081248;28;20049;-69
2022/03/26 04:31:15;;;;;;;68.78;38.95;;;3.60;99.90;;;;;;2081347;28;20084;-69
2022/03/26 04:32:16;;;;;;;67.97;39.58;;;3.60;99.90;;;;;;2075412;28;20753;-69
2022/03/26 04:33:17;;;;;;;68.47;39.85;;;3.60;99.90;;;;;;2079444;28;20063;-70
2022/03/26 04:34:19;;;;;;;67.70;39.13;;;3.60;99.90;;;;;;2089144;28;20033;-71
2022/03/26 04:35:19;;;;;;;65.68;39.15;;;3.60;99.90;;;;;;2088622;28;20119;-71
2022/03/26 04:36:20;;;;;;;66.70;38.90;;;3.60;99.90;;;;;;2081517;28;20056;-71
2022/03/26 04:37:21;;;;;;;70.18;38.90;;;3.60;99.90;;;;;;2081522;28;20037;-71
2022/03/26 04:38:22;;;;;;;66.72;39.00;;;3.60;99.90;;;;;;2081681;28;20037;-74
2022/03/26 04:39:22;;;;;;;67.38;37.80;;;3.60;99.90;;;;;;2081565;28;20029;-71
2022/03/26 04:40:24;;;;;;;67.95;39.10;;;3.60;99.90;;;;;;2080563;28;20438;-72
2022/03/26 04:41:25;;;;;;;68.43;39.05;;;3.60;99.90;;;;;;2080797;28;20029;-71
2022/03/26 04:42:26;;;;;;;66.03;39.22;;;3.60;99.90;;;;;;2081166;28;20033;-71
2022/03/26 04:43:26;;;;;;;67.65;39.20;;;3.50;99.90;;;;;;2081493;28;20029;-71
2022/03/26 04:44:27;;;;;;;66.47;38.42;;;3.50;99.90;;;;;;2081469;28;20021;-71
2022/03/26 04:45:30;;;;;;;64.30;38.55;;;3.50;99.90;;;;;;2080972;28;20564;-70
2022/03/26 04:46:30;;;;;;;66.72;39.30;;;3.50;99.90;;;;;;2080455;28;20692;-71
2022/03/26 04:47:31;;;;;;;66.13;38.20;;;3.50;99.90;;;;;;2073108;28;20064;-70
2022/03/26 04:48:32;;;;;;;67.60;39.08;;;3.50;99.90;;;;;;2081679;28;20029;-69
2022/03/26 04:49:32;;;;;;;62.13;37.58;;;3.50;99.90;;;;;;2081090;28;20404;-69
2022/03/26 04:50:33;;;;;;;66.85;38.90;;;3.50;99.90;;;;;;2081135;28;20061;-68
2022/03/26 04:51:33;;;;;;;66.95;38.80;;;3.50;99.90;;;;;;2080728;28;20025;-69
2022/03/26 04:52:34;;;;;;;66.93;38.50;;;3.50;99.90;;;;;;2080637;28;20520;-69
2022/03/26 04:53:35;;;;;;;71.47;40.83;;;3.50;99.90;;;;;;2080686;28;20037;-69
2022/03/26 04:54:35;;;;;;;70.85;39.83;;;3.50;99.90;;;;;;2088673;28;20543;-71
2022/03/26 04:55:36;;;;;;;67.32;39.58;;;3.50;99.90;;;;;;2080391;28;20123;-71
2022/03/26 04:56:37;;;;;;;70.50;39.95;;;3.50;99.90;;;;;;2080766;28;20116;-69
2022/03/26 04:57:42;;;;;;;68.75;39.53;;;3.50;99.90;;;;;;2080704;28;20048;-70
2022/03/26 04:58:42;;;;;;;71.35;40.40;;;3.50;99.90;;;;;;2073104;28;20034;-70
2022/03/26 04:59:46;;;;;;;69.00;40.35;;;3.50;99.90;;;;;;2080827;28;20029;-70
2022/03/26 05:00:47;;;;;;;69.18;40.03;;;3.50;99.90;;;;;;2072195;28;20037;-71
2022/03/26 05:01:47;;;;;;;73.32;41.75;;;3.50;99.90;;;;;;2072474;28;20044;-70
2022/03/26 05:02:49;;;;;;;71.95;41.13;;;3.50;99.90;;;;;;2080610;28;20025;-71
2022/03/26 05:03:49;;;;;;;70.53;39.75;;;3.50;99.90;;;;;;2080924;28;20508;-70
2022/03/26 05:04:50;;;;;;;69.75;40.38;;;3.50;99.90;;;;;;2080564;28;20032;-69
2022/03/26 05:05:57;;;;;;;71.65;40.05;;;3.50;99.90;;;;;;2080854;28;20032;-70
2022/03/26 05:06:57;;;;;;;66.95;39.80;;;3.50;99.90;;;;;;2089091;28;20035;-69
2022/03/26 05:07:59;;;;;;;73.97;42.67;;;3.50;99.90;;;;;;2089278;28;20032;-68
2022/03/26 05:09:00;;;;;;;69.88;40.35;;;3.50;99.90;;;;;;2081212;28;20025;-72
2022/03/26 05:10:03;;;;;;;69.07;39.22;;;3.50;99.90;;;;;;2080962;28;20448;-68
2022/03/26 05:11:05;;;;;;;72.57;40.65;;;3.50;99.90;;;;;;2080886;28;20488;-69
2022/03/26 05:12:06;;;;;;;70.43;40.30;;;3.50;99.90;;;;;;2081093;28;20033;-69
2022/03/26 05:13:07;;;;;;;67.00;39.38;;;3.50;99.90;;;;;;2080945;28;20105;-69
2022/03/26 05:14:08;;;;;;;67.13;39.35;;;3.50;99.90;;;;;;2081543;28;20041;-70
2022/03/26 05:15:09;;;;;;;71.78;40.63;;;3.50;99.90;;;;;;2081421;28;20030;-69
2022/03/26 05:16:10;;;;;;;68.40;39.90;;;3.60;99.90;;;;;;2081403;28;20036;-70